CheckWX is a tool to help pilots better visualize weather data.  It is not intended as a substitute for an official pre-flight weather briefing.

21:21:30 UTC

LEZG METAR
Zaragoza Air Base Airport
Zaragoza, Spain
Current

22 mins ago

LEZG 212100Z 29003KT 240V330 CAVOK 10/05 Q1029
Observed
Feb-21 @ 21:00 UTC
Wind
  • 290° at 3 KTS
Visibility
10,000+ meters
Flight Rules
VFR
Cloud Levels
  • Clear skies
Temperature
10°C / 50°F
Dewpoint
C / 41°F
Humidity
71%
Altimeter
30.38" Hg
Pressure
1028.92 hPa
Previous

52 mins ago

LEZG 212030Z 22007KT CAVOK 10/05 Q1029
Observed
Feb-21 @ 20:30 UTC
Wind
  • 220° at 7 KTS
Visibility
10,000+ meters
Flight Rules
VFR
Cloud Levels
  • Clear skies
Temperature
10°C / 50°F
Dewpoint
C / 41°F
Humidity
71%
Altimeter
30.38" Hg
Pressure
1028.92 hPa
Previous

1 hour ago

LEZG 212000Z 22008KT CAVOK 11/05 Q1029
Observed
Feb-21 @ 20:00 UTC
Wind
  • 220° at 8 KTS
Visibility
10,000+ meters
Flight Rules
VFR
Cloud Levels
  • Clear skies
Temperature
11°C / 52°F
Dewpoint
C / 41°F
Humidity
67%
Altimeter
30.38" Hg
Pressure
1028.92 hPa